sensor_id;sensor_type;location;lat;lon;timestamp;pressure;altitude;pressure_sealevel;temperature;humidity
6150;BME280;3106;42.670;23.318;2022-08-19T00:01:58;94216.38;;;23.48;70.24
6150;BME280;3106;42.670;23.318;2022-08-19T00:04:29;94144.78;;;22.97;70.74
6150;BME280;3106;42.670;23.318;2022-08-19T00:06:57;94205.03;;;23.34;70.81
6150;BME280;3106;42.670;23.318;2022-08-19T00:09:26;94136.22;;;22.95;70.21
6150;BME280;3106;42.670;23.318;2022-08-19T00:11:54;94197.72;;;23.31;70.49
6150;BME280;3106;42.670;23.318;2022-08-19T00:14:24;94212.88;;;23.48;71.71
6150;BME280;3106;42.670;23.318;2022-08-19T00:16:53;94195.72;;;23.31;72.22
6150;BME280;3106;42.670;23.318;2022-08-19T00:19:23;94145.25;;;22.92;71.03
6150;BME280;3106;42.670;23.318;2022-08-19T00:21:50;94158.03;;;22.95;70.82
6150;BME280;3106;42.670;23.318;2022-08-19T00:24:18;94206.88;;;23.05;72.65
6150;BME280;3106;42.670;23.318;2022-08-19T00:26:46;94199.31;;;22.97;72.41
6150;BME280;3106;42.670;23.318;2022-08-19T00:29:18;94224.78;;;23.06;72.36
6150;BME280;3106;42.670;23.318;2022-08-19T00:31:46;94198.44;;;22.84;72.93
6150;BME280;3106;42.670;23.318;2022-08-19T00:34:15;94206.78;;;22.93;72.48
6150;BME280;3106;42.670;23.318;2022-08-19T00:36:44;94221.94;;;22.94;72.72
6150;BME280;3106;42.670;23.318;2022-08-19T00:39:12;94207.72;;;22.86;72.35
6150;BME280;3106;42.670;23.318;2022-08-19T00:41:41;94220.16;;;22.87;71.06
6150;BME280;3106;42.670;23.318;2022-08-19T00:44:11;94219.50;;;22.99;70.26
6150;BME280;3106;42.670;23.318;2022-08-19T00:46:41;94169.28;;;22.65;68.18
6150;BME280;3106;42.670;23.318;2022-08-19T00:49:14;94202.09;;;22.93;68.66
6150;BME280;3106;42.670;23.318;2022-08-19T00:51:45;94141.81;;;22.56;70.02
6150;BME280;3106;42.670;23.318;2022-08-19T00:54:14;94196.16;;;22.98;70.19
6150;BME280;3106;42.670;23.318;2022-08-19T00:56:42;94203.31;;;23.08;72.30
6150;BME280;3106;42.670;23.318;2022-08-19T00:59:10;94151.81;;;22.78;70.87
6150;BME280;3106;42.670;23.318;2022-08-19T01:01:39;94198.34;;;23.03;71.90
6150;BME280;3106;42.670;23.318;2022-08-19T01:04:07;94163.91;;;22.77;73.75
6150;BME280;3106;42.670;23.318;2022-08-19T01:06:36;94178.31;;;22.78;74.04
6150;BME280;3106;42.670;23.318;2022-08-19T01:09:07;94177.47;;;22.81;74.24
6150;BME280;3106;42.670;23.318;2022-08-19T01:11:41;94124.53;;;22.46;74.43
6150;BME280;3106;42.670;23.318;2022-08-19T01:14:11;94195.19;;;22.89;74.91
6150;BME280;3106;42.670;23.318;2022-08-19T01:16:39;94177.97;;;22.76;74.81
6150;BME280;3106;42.670;23.318;2022-08-19T01:19:15;94165.59;;;22.55;75.42
6150;BME280;3106;42.670;23.318;2022-08-19T01:21:49;94178.22;;;22.65;75.07
6150;BME280;3106;42.670;23.318;2022-08-19T01:24:25;94220.47;;;22.73;72.15
6150;BME280;3106;42.670;23.318;2022-08-19T01:26:53;94149.09;;;22.27;72.40
6150;BME280;3106;42.670;23.318;2022-08-19T01:29:20;94150.34;;;22.22;72.33
6150;BME280;3106;42.670;23.318;2022-08-19T01:31:48;94182.47;;;22.31;73.46
6150;BME280;3106;42.670;23.318;2022-08-19T01:34:19;94139.69;;;21.92;74.07
6150;BME280;3106;42.670;23.318;2022-08-19T01:36:47;94169.34;;;22.06;74.86
6150;BME280;3106;42.670;23.318;2022-08-19T01:39:16;94202.03;;;22.26;75.57
6150;BME280;3106;42.670;23.318;2022-08-19T01:41:47;94200.19;;;22.19;75.84
6150;BME280;3106;42.670;23.318;2022-08-19T01:44:14;94173.63;;;22.07;76.19
6150;BME280;3106;42.670;23.318;2022-08-19T01:46:43;94204.59;;;22.13;76.51
6150;BME280;3106;42.670;23.318;2022-08-19T01:49:10;94194.69;;;22.03;76.88
6150;BME280;3106;42.670;23.318;2022-08-19T01:51:38;94204.25;;;22.11;77.42
6150;BME280;3106;42.670;23.318;2022-08-19T01:54:05;94171.59;;;21.92;76.79
6150;BME280;3106;42.670;23.318;2022-08-19T01:56:32;94196.59;;;22.06;77.05
6150;BME280;3106;42.670;23.318;2022-08-19T01:59:17;94211.44;;;22.21;77.86
6150;BME280;3106;42.670;23.318;2022-08-19T02:01:45;94209.22;;;22.16;77.98
6150;BME280;3106;42.670;23.318;2022-08-19T02:04:13;94217.03;;;22.14;77.62
6150;BME280;3106;42.670;23.318;2022-08-19T02:06:40;94201.09;;;21.93;78.55
6150;BME280;3106;42.670;23.318;2022-08-19T02:09:08;94218.91;;;21.98;78.38
6150;BME280;3106;42.670;23.318;2022-08-19T02:11:37;94209.06;;;21.84;78.76
6150;BME280;3106;42.670;23.318;2022-08-19T02:14:06;94165.38;;;21.49;79.45
6150;BME280;3106;42.670;23.318;2022-08-19T02:16:36;94195.09;;;21.63;79.47
6150;BME280;3106;42.670;23.318;2022-08-19T02:19:04;94167.81;;;21.43;79.43
6150;BME280;3106;42.670;23.318;2022-08-19T02:21:31;94194.41;;;21.55;79.49
6150;BME280;3106;42.670;23.318;2022-08-19T02:23:59;94189.16;;;21.45;79.66
6150;BME280;3106;42.670;23.318;2022-08-19T02:26:26;94185.38;;;21.39;79.78
6150;BME280;3106;42.670;23.318;2022-08-19T02:28:54;94200.88;;;21.42;79.14
6150;BME280;3106;42.670;23.318;2022-08-19T02:31:24;94223.59;;;21.55;79.22
6150;BME280;3106;42.670;23.318;2022-08-19T02:33:56;94206.78;;;21.37;78.99
6150;BME280;3106;42.670;23.318;2022-08-19T02:36:24;94180.13;;;21.29;79.41
6150;BME280;3106;42.670;23.318;2022-08-19T02:38:51;94212.63;;;21.58;79.71
6150;BME280;3106;42.670;23.318;2022-08-19T02:41:20;94195.25;;;21.52;78.76
6150;BME280;3106;42.670;23.318;2022-08-19T02:43:49;94182.59;;;21.42;78.87
6150;BME280;3106;42.670;23.318;2022-08-19T02:46:18;94187.88;;;21.53;79.26
6150;BME280;3106;42.670;23.318;2022-08-19T02:48:47;94217.91;;;21.69;79.36
6150;BME280;3106;42.670;23.318;2022-08-19T02:51:21;94139.34;;;21.06;79.89
6150;BME280;3106;42.670;23.318;2022-08-19T02:53:48;94159.91;;;21.30;79.31
6150;BME280;3106;42.670;23.318;2022-08-19T02:56:17;94228.59;;;21.79;78.42
6150;BME280;3106;42.670;23.318;2022-08-19T02:58:45;94213.31;;;21.66;78.55
6150;BME280;3106;42.670;23.318;2022-08-19T03:01:19;94207.59;;;21.57;78.80
6150;BME280;3106;42.670;23.318;2022-08-19T03:03:46;94198.00;;;21.49;79.09
6150;BME280;3106;42.670;23.318;2022-08-19T03:06:15;94155.91;;;21.15;80.82
6150;BME280;3106;42.670;23.318;2022-08-19T03:08:46;94171.38;;;21.18;82.79
6150;BME280;3106;42.670;23.318;2022-08-19T03:11:15;94160.69;;;21.07;83.41
6150;BME280;3106;42.670;23.318;2022-08-19T03:13:43;94222.00;;;21.35;83.51
6150;BME280;3106;42.670;23.318;2022-08-19T03:16:11;94204.25;;;21.27;82.86
6150;BME280;3106;42.670;23.318;2022-08-19T03:18:38;94207.50;;;21.18;83.16
6150;BME280;3106;42.670;23.318;2022-08-19T03:21:07;94187.59;;;21.02;83.50
6150;BME280;3106;42.670;23.318;2022-08-19T03:23:35;94194.56;;;21.03;82.87
6150;BME280;3106;42.670;23.318;2022-08-19T03:26:05;94178.91;;;20.84;82.45
6150;BME280;3106;42.670;23.318;2022-08-19T03:28:32;94176.22;;;20.84;82.94
6150;BME280;3106;42.670;23.318;2022-08-19T03:31:01;94219.78;;;21.03;83.07
6150;BME280;3106;42.670;23.318;2022-08-19T03:33:29;94207.25;;;20.86;83.22
6150;BME280;3106;42.670;23.318;2022-08-19T03:36:06;94185.97;;;20.78;83.96
6150;BME280;3106;42.670;23.318;2022-08-19T03:38:35;94205.22;;;20.90;84.05
6150;BME280;3106;42.670;23.318;2022-08-19T03:41:05;94211.34;;;20.98;84.37
6150;BME280;3106;42.670;23.318;2022-08-19T03:43:35;94215.25;;;20.97;83.93
6150;BME280;3106;42.670;23.318;2022-08-19T03:46:04;94236.25;;;21.19;83.70
6150;BME280;3106;42.670;23.318;2022-08-19T03:48:31;94238.97;;;21.19;83.80
6150;BME280;3106;42.670;23.318;2022-08-19T03:50:59;94203.69;;;20.89;84.28
6150;BME280;3106;42.670;23.318;2022-08-19T03:53:28;94241.16;;;21.01;85.12
6150;BME280;3106;42.670;23.318;2022-08-19T03:55:57;94251.69;;;20.99;85.26
6150;BME280;3106;42.670;23.318;2022-08-19T03:58:27;94257.91;;;21.00;84.87
6150;BME280;3106;42.670;23.318;2022-08-19T04:00:55;94240.13;;;20.92;84.58
6150;BME280;3106;42.670;23.318;2022-08-19T04:03:24;94209.16;;;20.86;84.22
6150;BME280;3106;42.670;23.318;2022-08-19T04:05:51;94227.19;;;21.03;84.12
6150;BME280;3106;42.670;23.318;2022-08-19T04:08:19;94252.78;;;21.28;83.82
6150;BME280;3106;42.670;23.318;2022-08-19T04:10:48;94245.50;;;21.22;83.63
6150;BME280;3106;42.670;23.318;2022-08-19T04:13:16;94239.50;;;21.34;82.87
6150;BME280;3106;42.670;23.318;2022-08-19T04:15:45;94269.41;;;21.56;82.83
6150;BME280;3106;42.670;23.318;2022-08-19T04:18:13;94263.56;;;21.58;82.19
6150;BME280;3106;42.670;23.318;2022-08-19T04:20:46;94242.16;;;21.60;82.00
6150;BME280;3106;42.670;23.318;2022-08-19T04:23:15;94243.53;;;21.71;81.32
6150;BME280;3106;42.670;23.318;2022-08-19T04:25:43;94271.88;;;21.93;80.28
6150;BME280;3106;42.670;23.318;2022-08-19T04:28:13;94257.94;;;21.91;79.94
6150;BME280;3106;42.670;23.318;2022-08-19T04:30:42;94245.44;;;21.94;79.66
6150;BME280;3106;42.670;23.318;2022-08-19T04:33:13;94234.47;;;21.97;79.17
6150;BME280;3106;42.670;23.318;2022-08-19T04:35:44;94234.56;;;22.13;78.95
6150;BME280;3106;42.670;23.318;2022-08-19T04:38:12;94241.25;;;22.28;79.48
6150;BME280;3106;42.670;23.318;2022-08-19T04:40:40;94270.69;;;22.56;79.40
6150;BME280;3106;42.670;23.318;2022-08-19T04:43:25;94268.25;;;22.62;78.81
6150;BME280;3106;42.670;23.318;2022-08-19T04:45:53;94201.38;;;22.18;78.48
6150;BME280;3106;42.670;23.318;2022-08-19T04:48:23;94236.09;;;22.53;77.72
6150;BME280;3106;42.670;23.318;2022-08-19T04:50:52;94245.09;;;22.70;77.69
6150;BME280;3106;42.670;23.318;2022-08-19T04:53:23;94256.31;;;22.91;77.37
6150;BME280;3106;42.670;23.318;2022-08-19T04:55:54;94251.41;;;23.82;74.46
6150;BME280;3106;42.670;23.318;2022-08-19T04:58:22;94260.69;;;25.35;69.29
6150;BME280;3106;42.670;23.318;2022-08-19T05:00:50;94256.84;;;26.81;63.08
6150;BME280;3106;42.670;23.318;2022-08-19T05:03:17;94244.31;;;27.89;57.88
6150;BME280;3106;42.670;23.318;2022-08-19T05:05:46;94281.03;;;28.94;54.07
6150;BME280;3106;42.670;23.318;2022-08-19T05:08:17;94282.06;;;29.05;51.57
6150;BME280;3106;42.670;23.318;2022-08-19T05:10:48;94284.31;;;29.25;50.74
6150;BME280;3106;42.670;23.318;2022-08-19T05:13:18;94249.81;;;29.47;49.50
6150;BME280;3106;42.670;23.318;2022-08-19T05:15:56;94253.53;;;29.67;48.23
6150;BME280;3106;42.670;23.318;2022-08-19T05:18:24;94280.00;;;30.68;45.95
6150;BME280;3106;42.670;23.318;2022-08-19T05:21:14;94301.31;;;31.63;43.62
6150;BME280;3106;42.670;23.318;2022-08-19T05:23:59;94283.81;;;32.20;42.39
6150;BME280;3106;42.670;23.318;2022-08-19T05:26:27;94262.91;;;32.59;40.45
6150;BME280;3106;42.670;23.318;2022-08-19T05:28:55;94291.84;;;33.23;39.09
6150;BME280;3106;42.670;23.318;2022-08-19T05:31:22;94293.22;;;33.13;38.42
6150;BME280;3106;42.670;23.318;2022-08-19T05:33:49;94298.19;;;33.04;38.94
6150;BME280;3106;42.670;23.318;2022-08-19T05:36:18;94273.06;;;33.13;38.40
6150;BME280;3106;42.670;23.318;2022-08-19T05:38:46;94274.19;;;32.76;38.95
6150;BME280;3106;42.670;23.318;2022-08-19T05:41:15;94292.31;;;31.82;41.05
6150;BME280;3106;42.670;23.318;2022-08-19T05:43:42;94283.91;;;30.76;43.96
6150;BME280;3106;42.670;23.318;2022-08-19T05:46:16;94254.25;;;29.77;46.42
6150;BME280;3106;42.670;23.318;2022-08-19T05:48:45;94298.50;;;29.32;48.92
6150;BME280;3106;42.670;23.318;2022-08-19T05:51:12;94239.72;;;28.85;49.70
6150;BME280;3106;42.670;23.318;2022-08-19T05:53:43;94265.28;;;28.58;50.41
6150;BME280;3106;42.670;23.318;2022-08-19T05:56:13;94299.38;;;29.56;48.58
6150;BME280;3106;42.670;23.318;2022-08-19T05:58:42;94306.47;;;30.36;46.77
6150;BME280;3106;42.670;23.318;2022-08-19T06:01:13;94234.63;;;30.45;44.43
6150;BME280;3106;42.670;23.318;2022-08-19T06:03:54;94268.31;;;31.02;43.04
6150;BME280;3106;42.670;23.318;2022-08-19T06:06:22;94253.28;;;31.03;43.08
6150;BME280;3106;42.670;23.318;2022-08-19T06:08:54;94237.72;;;31.48;41.42
6150;BME280;3106;42.670;23.318;2022-08-19T06:11:37;94307.84;;;32.29;40.48
6150;BME280;3106;42.670;23.318;2022-08-19T06:14:07;94283.41;;;32.27;39.42
6150;BME280;3106;42.670;23.318;2022-08-19T06:16:35;94272.34;;;32.27;39.08
6150;BME280;3106;42.670;23.318;2022-08-19T06:19:16;94299.00;;;32.10;38.87
6150;BME280;3106;42.670;23.318;2022-08-19T06:21:45;94268.69;;;31.52;40.53
6150;BME280;3106;42.670;23.318;2022-08-19T06:24:20;94278.44;;;31.48;41.23
6150;BME280;3106;42.670;23.318;2022-08-19T06:26:49;94310.06;;;31.61;41.77
6150;BME280;3106;42.670;23.318;2022-08-19T06:29:17;94288.25;;;31.34;42.19
6150;BME280;3106;42.670;23.318;2022-08-19T06:31:46;94261.56;;;31.46;42.06
6150;BME280;3106;42.670;23.318;2022-08-19T06:34:15;94313.88;;;31.78;41.07
6150;BME280;3106;42.670;23.318;2022-08-19T06:36:46;94307.78;;;31.60;41.64
6150;BME280;3106;42.670;23.318;2022-08-19T06:39:17;94268.19;;;31.20;41.88
6150;BME280;3106;42.670;23.318;2022-08-19T06:41:46;94293.09;;;30.82;43.73
6150;BME280;3106;42.670;23.318;2022-08-19T06:44:14;94290.09;;;30.71;44.06
6150;BME280;3106;42.670;23.318;2022-08-19T06:46:42;94312.97;;;30.48;45.97
6150;BME280;3106;42.670;23.318;2022-08-19T06:49:10;94265.00;;;29.75;47.00
6150;BME280;3106;42.670;23.318;2022-08-19T06:51:40;94293.13;;;29.38;48.50
6150;BME280;3106;42.670;23.318;2022-08-19T06:54:07;94268.03;;;28.76;50.26
6150;BME280;3106;42.670;23.318;2022-08-19T06:56:39;94255.53;;;28.48;51.46
6150;BME280;3106;42.670;23.318;2022-08-19T07:04:16;94273.66;;;28.01;53.92
6150;BME280;3106;42.670;23.318;2022-08-19T07:06:44;94300.38;;;27.92;54.71
6150;BME280;3106;42.670;23.318;2022-08-19T07:09:15;94308.75;;;27.97;54.86
6150;BME280;3106;42.670;23.318;2022-08-19T07:11:51;94293.28;;;27.73;55.79
6150;BME280;3106;42.670;23.318;2022-08-19T07:14:32;94258.66;;;27.45;56.13
6150;BME280;3106;42.670;23.318;2022-08-19T07:17:03;94289.63;;;27.76;55.64
6150;BME280;3106;42.670;23.318;2022-08-19T07:19:31;94318.09;;;27.99;56.21
6150;BME280;3106;42.670;23.318;2022-08-19T07:22:01;94296.66;;;27.86;55.91
6150;BME280;3106;42.670;23.318;2022-08-19T07:24:28;94300.03;;;27.81;56.13
6150;BME280;3106;42.670;23.318;2022-08-19T07:27:30;94308.75;;;27.97;55.81
6150;BME280;3106;42.670;23.318;2022-08-19T07:29:57;94260.28;;;27.64;55.26
6150;BME280;3106;42.670;23.318;2022-08-19T07:32:25;94306.81;;;28.06;55.41
6150;BME280;3106;42.670;23.318;2022-08-19T07:34:52;94264.66;;;28.00;54.82
6150;BME280;3106;42.670;23.318;2022-08-19T07:37:20;94260.06;;;28.15;54.43
6150;BME280;3106;42.670;23.318;2022-08-19T07:39:49;94243.56;;;28.15;53.61
6150;BME280;3106;42.670;23.318;2022-08-19T07:42:17;94278.28;;;28.67;52.53
6150;BME280;3106;42.670;23.318;2022-08-19T07:44:57;94274.63;;;28.88;52.06
6150;BME280;3106;42.670;23.318;2022-08-19T07:47:28;94284.31;;;29.16;51.48
6150;BME280;3106;42.670;23.318;2022-08-19T07:49:57;94292.38;;;29.37;50.37
6150;BME280;3106;42.670;23.318;2022-08-19T07:52:27;94289.28;;;29.53;49.63
6150;BME280;3106;42.670;23.318;2022-08-19T07:55:09;94307.09;;;29.75;48.83
6150;BME280;3106;42.670;23.318;2022-08-19T07:57:46;94271.97;;;29.52;49.38
6150;BME280;3106;42.670;23.318;2022-08-19T09:04:53;94273.22;;;31.84;37.27
6150;BME280;3106;42.670;23.318;2022-08-19T09:07:47;94251.44;;;31.57;36.49
6150;BME280;3106;42.670;23.318;2022-08-19T09:10:25;94249.06;;;31.65;36.09
6150;BME280;3106;42.670;23.318;2022-08-19T09:13:03;94259.66;;;31.86;36.21
6150;BME280;3106;42.670;23.318;2022-08-19T09:15:36;94254.13;;;31.86;35.65
6150;BME280;3106;42.670;23.318;2022-08-19T09:18:08;94241.50;;;31.80;35.38
6150;BME280;3106;42.670;23.318;2022-08-19T09:20:42;94211.16;;;32.05;34.27
6150;BME280;3106;42.670;23.318;2022-08-19T09:23:11;94248.06;;;32.62;33.84
6150;BME280;3106;42.670;23.318;2022-08-19T09:25:38;94225.91;;;32.62;31.02
6150;BME280;3106;42.670;23.318;2022-08-19T09:28:08;94246.59;;;33.12;31.46
6150;BME280;3106;42.670;23.318;2022-08-19T09:30:40;94198.38;;;32.98;31.08
6150;BME280;3106;42.670;23.318;2022-08-19T09:36:26;94224.03;;;33.19;30.63
6150;BME280;3106;42.670;23.318;2022-08-19T09:38:56;94207.72;;;33.32;29.84
6150;BME280;3106;42.670;23.318;2022-08-19T09:41:37;94214.34;;;33.71;29.94
6150;BME280;3106;42.670;23.318;2022-08-19T12:33:19;94065.06;;;34.88;27.76
6150;BME280;3106;42.670;23.318;2022-08-19T12:35:49;94112.53;;;35.34;27.86
6150;BME280;3106;42.670;23.318;2022-08-19T18:37:04;94030.13;;;28.45;45.16
6150;BME280;3106;42.670;23.318;2022-08-19T18:39:34;94057.69;;;28.59;45.47
6150;BME280;3106;42.670;23.318;2022-08-19T18:42:20;94097.19;;;28.80;45.80
6150;BME280;3106;42.670;23.318;2022-08-19T18:45:11;94030.03;;;28.30;45.88
6150;BME280;3106;42.670;23.318;2022-08-19T18:47:56;94073.31;;;28.53;46.26
6150;BME280;3106;42.670;23.318;2022-08-19T18:50:41;94078.38;;;28.55;45.74
6150;BME280;3106;42.670;23.318;2022-08-19T18:53:14;94027.00;;;28.10;47.44
6150;BME280;3106;42.670;23.318;2022-08-19T18:55:48;94092.41;;;28.57;46.79
6150;BME280;3106;42.670;23.318;2022-08-19T19:11:32;94047.47;;;28.00;47.29
6150;BME280;3106;42.670;23.318;2022-08-19T19:14:17;94046.72;;;27.91;47.71
6150;BME280;3106;42.670;23.318;2022-08-19T19:17:00;94098.75;;;28.21;48.04
6150;BME280;3106;42.670;23.318;2022-08-19T19:19:42;94083.03;;;28.13;47.68
6150;BME280;3106;42.670;23.318;2022-08-19T19:22:24;94105.03;;;28.13;47.75
6150;BME280;3106;42.670;23.318;2022-08-19T19:27:41;94098.81;;;27.94;48.79
6150;BME280;3106;42.670;23.318;2022-08-19T19:30:09;94109.94;;;27.91;48.66
6150;BME280;3106;42.670;23.318;2022-08-19T19:32:38;94091.34;;;27.77;49.21
6150;BME280;3106;42.670;23.318;2022-08-19T19:35:06;94101.84;;;27.79;48.43
6150;BME280;3106;42.670;23.318;2022-08-19T19:37:36;94136.97;;;27.92;49.02
6150;BME280;3106;42.670;23.318;2022-08-19T19:40:09;94069.31;;;27.50;48.76
6150;BME280;3106;42.670;23.318;2022-08-19T19:42:41;94101.72;;;27.73;49.08
6150;BME280;3106;42.670;23.318;2022-08-19T19:45:08;94125.22;;;27.83;49.76
6150;BME280;3106;42.670;23.318;2022-08-19T19:47:35;94081.97;;;27.48;49.77
6150;BME280;3106;42.670;23.318;2022-08-19T19:50:03;94061.06;;;27.32;50.46
6150;BME280;3106;42.670;23.318;2022-08-19T19:52:30;94130.44;;;27.72;50.66
6150;BME280;3106;42.670;23.318;2022-08-19T19:54:57;94083.06;;;27.41;50.62
6150;BME280;3106;42.670;23.318;2022-08-19T19:57:24;94102.72;;;27.49;50.78
6150;BME280;3106;42.670;23.318;2022-08-19T19:59:55;94131.75;;;27.59;51.00
6150;BME280;3106;42.670;23.318;2022-08-19T20:02:23;94148.75;;;27.75;50.87
6150;BME280;3106;42.670;23.318;2022-08-19T20:04:50;94078.47;;;27.29;51.29
6150;BME280;3106;42.670;23.318;2022-08-19T20:07:23;94097.84;;;27.35;51.93
6150;BME280;3106;42.670;23.318;2022-08-19T20:10:11;94110.97;;;27.31;52.01
6150;BME280;3106;42.670;23.318;2022-08-19T20:12:37;94079.31;;;26.99;52.29
6150;BME280;3106;42.670;23.318;2022-08-19T20:15:07;94116.75;;;27.24;53.17
6150;BME280;3106;42.670;23.318;2022-08-19T20:17:35;94120.53;;;27.17;53.00
6150;BME280;3106;42.670;23.318;2022-08-19T20:20:08;94095.91;;;26.96;53.56
6150;BME280;3106;42.670;23.318;2022-08-19T20:25:12;94107.06;;;27.01;53.80
6150;BME280;3106;42.670;23.318;2022-08-19T20:27:54;94145.25;;;27.26;53.71
6150;BME280;3106;42.670;23.318;2022-08-19T20:36:17;94099.88;;;26.95;54.04
6150;BME280;3106;42.670;23.318;2022-08-19T20:38:54;94151.66;;;27.14;54.61
6150;BME280;3106;42.670;23.318;2022-08-19T20:41:29;94134.94;;;26.91;54.32
6150;BME280;3106;42.670;23.318;2022-08-19T20:44:01;94138.28;;;26.86;54.61
6150;BME280;3106;42.670;23.318;2022-08-19T20:46:43;94159.66;;;27.00;54.61
6150;BME280;3106;42.670;23.318;2022-08-19T20:49:14;94092.13;;;26.54;55.18
6150;BME280;3106;42.670;23.318;2022-08-19T20:52:11;94126.78;;;26.69;54.02
6150;BME280;3106;42.670;23.318;2022-08-19T20:54:39;94133.47;;;26.68;54.93
6150;BME280;3106;42.670;23.318;2022-08-19T20:57:08;94101.09;;;26.33;55.58
6150;BME280;3106;42.670;23.318;2022-08-19T20:59:46;94118.50;;;26.39;56.08
6150;BME280;3106;42.670;23.318;2022-08-19T21:02:14;94086.84;;;26.17;56.36
6150;BME280;3106;42.670;23.318;2022-08-19T21:04:50;94157.94;;;26.54;56.28
6150;BME280;3106;42.670;23.318;2022-08-19T21:07:33;94098.28;;;26.15;55.88
6150;BME280;3106;42.670;23.318;2022-08-19T21:10:10;94157.19;;;26.41;57.21
6150;BME280;3106;42.670;23.318;2022-08-19T21:13:11;94114.66;;;26.06;57.04
6150;BME280;3106;42.670;23.318;2022-08-19T21:15:42;94105.63;;;25.97;58.42
6150;BME280;3106;42.670;23.318;2022-08-19T21:18:25;94099.97;;;25.79;58.50
6150;BME280;3106;42.670;23.318;2022-08-19T21:21:06;94101.81;;;25.82;59.42
6150;BME280;3106;42.670;23.318;2022-08-19T21:24:05;94134.66;;;25.94;59.79
6150;BME280;3106;42.670;23.318;2022-08-19T21:26:47;94125.41;;;25.79;60.20
6150;BME280;3106;42.670;23.318;2022-08-19T21:29:15;94086.75;;;25.56;60.23
6150;BME280;3106;42.670;23.318;2022-08-19T21:31:47;94133.09;;;25.84;59.20
6150;BME280;3106;42.670;23.318;2022-08-19T21:34:30;94150.84;;;26.01;59.04
6150;BME280;3106;42.670;23.318;2022-08-19T21:37:13;94155.38;;;25.95;59.54
6150;BME280;3106;42.670;23.318;2022-08-19T21:46:32;94111.91;;;25.85;58.51
6150;BME280;3106;42.670;23.318;2022-08-19T21:49:13;94100.34;;;25.68;59.25
6150;BME280;3106;42.670;23.318;2022-08-19T21:51:54;94096.53;;;25.66;59.51
6150;BME280;3106;42.670;23.318;2022-08-19T21:54:38;94095.69;;;25.56;59.91
6150;BME280;3106;42.670;23.318;2022-08-19T21:57:15;94132.09;;;25.78;59.68
6150;BME280;3106;42.670;23.318;2022-08-19T21:59:52;94140.84;;;25.86;59.97
6150;BME280;3106;42.670;23.318;2022-08-19T22:02:23;94109.03;;;25.67;59.63
6150;BME280;3106;42.670;23.318;2022-08-19T22:04:52;94106.19;;;25.70;59.84
6150;BME280;3106;42.670;23.318;2022-08-19T22:07:21;94093.75;;;25.57;59.59
6150;BME280;3106;42.670;23.318;2022-08-19T22:09:49;94132.41;;;25.93;59.04
6150;BME280;3106;42.670;23.318;2022-08-19T22:12:21;94125.06;;;25.90;58.82
6150;BME280;3106;42.670;23.318;2022-08-19T22:14:50;94139.25;;;25.97;58.50
6150;BME280;3106;42.670;23.318;2022-08-19T22:17:20;94118.06;;;25.89;59.52
6150;BME280;3106;42.670;23.318;2022-08-19T22:20:12;94145.69;;;26.03;59.60
6150;BME280;3106;42.670;23.318;2022-08-19T22:22:48;94114.13;;;25.90;58.71
6150;BME280;3106;42.670;23.318;2022-08-19T22:25:33;94092.06;;;25.81;59.30
6150;BME280;3106;42.670;23.318;2022-08-19T22:28:06;94067.63;;;25.65;59.52
6150;BME280;3106;42.670;23.318;2022-08-19T22:30:48;94068.59;;;25.71;58.85
6150;BME280;3106;42.670;23.318;2022-08-19T22:33:20;94047.25;;;25.66;58.17
6150;BME280;3106;42.670;23.318;2022-08-19T22:39:24;94055.25;;;25.82;58.65
6150;BME280;3106;42.670;23.318;2022-08-19T22:41:53;94079.50;;;26.05;57.13
6150;BME280;3106;42.670;23.318;2022-08-19T22:44:24;94070.31;;;25.99;57.12
6150;BME280;3106;42.670;23.318;2022-08-19T22:47:06;94096.91;;;26.20;57.43
6150;BME280;3106;42.670;23.318;2022-08-19T22:49:34;94090.75;;;26.07;57.63
6150;BME280;3106;42.670;23.318;2022-08-19T22:52:17;94039.41;;;25.77;58.27
6150;BME280;3106;42.670;23.318;2022-08-19T22:58:17;94056.31;;;25.75;58.05
6150;BME280;3106;42.670;23.318;2022-08-19T23:01:00;94062.84;;;25.78;58.00
6150;BME280;3106;42.670;23.318;2022-08-19T23:03:41;94128.59;;;26.21;58.42
6150;BME280;3106;42.670;23.318;2022-08-19T23:06:11;94080.19;;;25.96;58.33
6150;BME280;3106;42.670;23.318;2022-08-19T23:08:52;94052.19;;;25.80;57.77
6150;BME280;3106;42.670;23.318;2022-08-19T23:11:24;94041.06;;;25.74;58.51
6150;BME280;3106;42.670;23.318;2022-08-19T23:17:06;94105.59;;;26.18;58.07
6150;BME280;3106;42.670;23.318;2022-08-19T23:19:38;94065.75;;;25.96;58.19
6150;BME280;3106;42.670;23.318;2022-08-19T23:22:22;94066.97;;;25.95;58.12
6150;BME280;3106;42.670;23.318;2022-08-19T23:25:27;94108.97;;;26.22;58.73
6150;BME280;3106;42.670;23.318;2022-08-19T23:28:08;94061.31;;;25.98;58.57
6150;BME280;3106;42.670;23.318;2022-08-19T23:30:53;94058.28;;;25.96;58.59
6150;BME280;3106;42.670;23.318;2022-08-19T23:33:51;94023.28;;;25.79;59.08
6150;BME280;3106;42.670;23.318;2022-08-19T23:36:33;94051.59;;;25.97;58.92
6150;BME280;3106;42.670;23.318;2022-08-19T23:39:05;94084.50;;;26.27;58.96
6150;BME280;3106;42.670;23.318;2022-08-19T23:41:45;94095.28;;;26.22;58.88
6150;BME280;3106;42.670;23.318;2022-08-19T23:44:15;94064.13;;;26.07;58.85
6150;BME280;3106;42.670;23.318;2022-08-19T23:46:50;94022.84;;;25.80;59.50
6150;BME280;3106;42.670;23.318;2022-08-19T23:49:44;94006.16;;;25.66;59.84
6150;BME280;3106;42.670;23.318;2022-08-19T23:52:25;94043.31;;;25.88;59.18
6150;BME280;3106;42.670;23.318;2022-08-19T23:55:08;94019.28;;;25.71;59.84
6150;BME280;3106;42.670;23.318;2022-08-19T23:57:43;94038.97;;;25.78;59.58
